createdAt,value
2017-06-30T00:00:14.962Z,19.19
2017-06-30T00:00:55.489Z,19.22
2017-06-30T00:01:36.020Z,19.39
2017-06-30T00:02:16.521Z,19.33
2017-06-30T00:02:57.042Z,19.28
2017-06-30T00:03:37.656Z,19.29
2017-06-30T00:04:18.188Z,19.26
2017-06-30T00:04:58.673Z,19.32
2017-06-30T00:06:46.639Z,19.16
2017-06-30T00:07:27.230Z,19.26
2017-06-30T00:08:07.776Z,19.22
2017-06-30T00:08:48.299Z,19.23
2017-06-30T00:09:28.822Z,19.31
2017-06-30T00:10:09.335Z,19.32
2017-06-30T00:10:49.854Z,19.31
2017-06-30T00:11:30.382Z,19.25
2017-06-30T00:12:10.878Z,19.25
2017-06-30T00:12:51.384Z,19.29
2017-06-30T00:13:31.834Z,19.37
2017-06-30T00:14:12.340Z,19.36
2017-06-30T00:14:52.839Z,19.32
2017-06-30T00:15:33.301Z,19.33
2017-06-30T00:16:13.820Z,19.33
2017-06-30T00:16:54.320Z,19.41
2017-06-30T00:17:34.842Z,19.48
2017-06-30T00:18:15.384Z,19.41
2017-06-30T00:18:55.970Z,19.51
2017-06-30T00:19:36.482Z,19.54
2017-06-30T00:20:17.075Z,19.5
2017-06-30T00:20:57.616Z,19.48
2017-06-30T00:21:38.128Z,19.51
2017-06-30T00:22:18.648Z,19.43
2017-06-30T00:22:59.232Z,19.58
2017-06-30T00:23:39.751Z,19.54
2017-06-30T00:24:20.228Z,19.58
2017-06-30T00:25:00.782Z,19.51
2017-06-30T00:25:41.371Z,19.46
2017-06-30T00:26:21.828Z,19.44
2017-06-30T00:27:02.384Z,19.31
2017-06-30T00:27:42.935Z,19.4
2017-06-30T00:28:23.516Z,19.37
2017-06-30T00:29:03.983Z,19.43
2017-06-30T00:29:44.529Z,19.36
2017-06-30T00:30:25.027Z,19.21
2017-06-30T00:31:05.580Z,19.23
2017-06-30T00:31:46.107Z,19.25
2017-06-30T00:32:26.643Z,19.29
2017-06-30T00:33:07.299Z,19.26
2017-06-30T00:33:47.809Z,19.28
2017-06-30T00:34:28.349Z,19.16
2017-06-30T00:35:08.830Z,19.07
2017-06-30T00:35:49.366Z,19.1
2017-06-30T00:36:29.842Z,19.1
2017-06-30T00:37:10.371Z,19.08
2017-06-30T00:37:50.883Z,19.07
2017-06-30T00:38:31.430Z,19.07
2017-06-30T00:39:11.967Z,19.1
2017-06-30T00:39:52.448Z,19.18
2017-06-30T00:40:33.217Z,19.16
2017-06-30T00:41:13.671Z,19.18
2017-06-30T00:41:54.182Z,19.14
2017-06-30T00:42:34.681Z,19.13
2017-06-30T00:43:15.197Z,19.25
2017-06-30T00:43:55.692Z,19.16
2017-06-30T00:44:36.170Z,19.21
2017-06-30T00:45:16.707Z,18.98
2017-06-30T00:45:57.194Z,19.06
2017-06-30T00:46:37.716Z,18.99
2017-06-30T00:47:18.224Z,19.11
2017-06-30T00:47:58.752Z,19.07
2017-06-30T00:48:39.251Z,19.11
2017-06-30T00:49:19.717Z,19.21
2017-06-30T00:50:00.214Z,19.14
2017-06-30T00:50:40.738Z,19.16
2017-06-30T00:51:21.268Z,19.08
2017-06-30T00:52:01.798Z,19.08
2017-06-30T00:52:42.396Z,19.11
2017-06-30T00:53:22.950Z,19.08
2017-06-30T00:54:03.521Z,19.19
2017-06-30T00:54:44.010Z,19.18
2017-06-30T00:55:24.487Z,19.18
2017-06-30T00:56:04.987Z,19.08
2017-06-30T00:56:45.507Z,19.1
2017-06-30T00:57:26.032Z,19.08
2017-06-30T00:58:06.572Z,19.13
2017-06-30T00:58:47.139Z,19.18
2017-06-30T00:59:27.683Z,19.13
2017-06-30T01:00:08.215Z,19.14
2017-06-30T01:00:48.727Z,19.21
2017-06-30T01:01:29.239Z,19.22
2017-06-30T01:02:09.752Z,19.26
2017-06-30T01:02:50.280Z,19.25
2017-06-30T01:03:31.049Z,19.25
2017-06-30T01:04:11.342Z,19.19
2017-06-30T01:04:51.896Z,19.23
2017-06-30T01:05:32.410Z,19.16
2017-06-30T01:06:12.935Z,19.22
2017-06-30T01:06:53.468Z,19.25
2017-06-30T01:07:33.977Z,19.19
2017-06-30T01:08:14.505Z,19.31
2017-06-30T01:08:55.006Z,19.29
2017-06-30T01:09:35.525Z,19.33
2017-06-30T01:10:16.035Z,19.37
2017-06-30T01:10:56.528Z,19.32
2017-06-30T01:11:37.076Z,19.25
2017-06-30T01:12:17.498Z,19.23
2017-06-30T01:12:58.025Z,19.18
2017-06-30T01:14:56.265Z,19.28
2017-06-30T01:15:36.854Z,19.32
2017-06-30T01:17:14.728Z,19.31
2017-06-30T01:17:55.253Z,19.29
2017-06-30T01:18:35.770Z,19.32
2017-06-30T01:19:16.290Z,19.26
2017-06-30T01:19:56.884Z,19.32
2017-06-30T01:20:37.376Z,19.22
2017-06-30T01:21:17.896Z,19.25
2017-06-30T01:21:58.423Z,19.23
2017-06-30T01:22:38.956Z,19.23
2017-06-30T01:23:19.531Z,19.13
2017-06-30T01:24:00.046Z,19.14
2017-06-30T01:24:40.567Z,19.19
2017-06-30T01:25:21.089Z,19.23
2017-06-30T01:26:01.621Z,19.28
2017-06-30T01:26:42.148Z,19.21
2017-06-30T01:27:22.665Z,19.1
2017-06-30T01:28:03.177Z,19.21
2017-06-30T01:28:43.730Z,19.16
2017-06-30T01:29:24.252Z,19.16
2017-06-30T01:30:04.810Z,19.14
2017-06-30T01:30:45.296Z,19.19
2017-06-30T01:31:25.845Z,19.19
2017-06-30T01:32:06.358Z,19.21
2017-06-30T01:32:46.892Z,19.14
2017-06-30T01:33:27.413Z,19.23
2017-06-30T01:34:07.942Z,19.23
2017-06-30T01:34:48.461Z,19.26
2017-06-30T01:35:28.976Z,19.23
2017-06-30T01:36:09.510Z,19.14
2017-06-30T01:36:50.044Z,19.07
2017-06-30T01:37:30.580Z,19.08
2017-06-30T01:38:11.104Z,19.08
2017-06-30T01:38:51.624Z,19.06
2017-06-30T01:39:32.179Z,19.11
2017-06-30T01:40:12.766Z,19.11
2017-06-30T01:40:53.269Z,19.13
2017-06-30T01:41:33.833Z,19.19
2017-06-30T01:42:14.354Z,19.25
2017-06-30T01:42:54.878Z,19.22
2017-06-30T01:43:35.390Z,19.11
2017-06-30T01:44:15.930Z,19.02
2017-06-30T01:44:56.446Z,19.06
2017-06-30T01:45:37.052Z,19.04
2017-06-30T01:46:17.658Z,19.06
2017-06-30T01:46:58.179Z,19
2017-06-30T01:47:38.715Z,19.19
2017-06-30T01:48:19.242Z,19.23
2017-06-30T01:48:59.755Z,19.21
2017-06-30T01:49:40.270Z,19.25
2017-06-30T01:50:20.790Z,19.22
2017-06-30T01:51:01.327Z,19.28
2017-06-30T01:51:41.844Z,19.31
2017-06-30T01:52:22.377Z,19.22
2017-06-30T01:53:02.875Z,19.18
2017-06-30T01:53:43.382Z,19.18
2017-06-30T01:54:23.873Z,19.14
2017-06-30T01:55:04.378Z,19.19
2017-06-30T01:55:44.901Z,19.18
2017-06-30T01:56:25.586Z,19.21
2017-06-30T01:57:06.022Z,19.18
2017-06-30T01:57:46.546Z,19.14
2017-06-30T01:58:27.042Z,19.14
2017-06-30T01:59:07.674Z,19.18
2017-06-30T01:59:48.157Z,19.18
2017-06-30T02:00:28.687Z,19.23
2017-06-30T02:01:09.180Z,19.18
2017-06-30T02:01:49.685Z,19.31
2017-06-30T02:02:30.192Z,19.26
2017-06-30T02:03:10.711Z,19.23
2017-06-30T02:03:51.226Z,19.22
2017-06-30T02:04:31.761Z,19.18
2017-06-30T02:05:12.284Z,19.13
2017-06-30T02:05:52.819Z,19.28
2017-06-30T02:06:33.338Z,19.19
2017-06-30T02:07:13.880Z,19.22
2017-06-30T02:07:54.379Z,19.21
2017-06-30T02:08:34.900Z,19.23
2017-06-30T02:09:15.404Z,19.29
2017-06-30T02:09:55.930Z,19.25
2017-06-30T02:10:36.479Z,19.36
2017-06-30T02:11:17.006Z,19.4
2017-06-30T02:11:57.579Z,19.29
2017-06-30T02:12:38.057Z,19.41
2017-06-30T02:13:18.574Z,19.47
2017-06-30T02:13:59.091Z,19.39
2017-06-30T02:14:39.605Z,19.33
2017-06-30T02:15:20.121Z,19.36
2017-06-30T02:16:00.656Z,19.29
2017-06-30T02:16:41.171Z,19.22
2017-06-30T02:17:21.660Z,19.28
2017-06-30T02:18:02.174Z,19.26
2017-06-30T02:18:42.657Z,19.23
2017-06-30T02:19:23.169Z,19.21
2017-06-30T02:20:03.689Z,19.25
2017-06-30T02:20:44.230Z,19.31
2017-06-30T02:21:24.756Z,19.29
2017-06-30T02:22:05.282Z,19.21
2017-06-30T02:22:45.829Z,19.18
2017-06-30T02:23:26.407Z,19.22
2017-06-30T02:24:06.933Z,19.36
2017-06-30T02:24:47.437Z,19.31
2017-06-30T02:25:27.965Z,19.36
2017-06-30T02:26:08.486Z,19.31
2017-06-30T02:26:49.005Z,19.37
2017-06-30T02:27:29.518Z,19.37
2017-06-30T02:28:10.041Z,19.37
2017-06-30T02:28:50.555Z,19.33
2017-06-30T02:29:31.059Z,19.47
2017-06-30T02:30:11.737Z,19.37
2017-06-30T02:30:52.269Z,19.29
2017-06-30T02:31:32.811Z,19.28
2017-06-30T02:32:13.339Z,19.22
2017-06-30T02:32:53.865Z,19.25
2017-06-30T02:33:34.366Z,19.22
2017-06-30T02:34:14.905Z,19.28
2017-06-30T02:34:55.420Z,19.16
2017-06-30T02:35:35.933Z,19.22
2017-06-30T02:36:16.484Z,19.21
2017-06-30T02:36:57.001Z,19.32
2017-06-30T02:37:37.519Z,19.25
2017-06-30T02:38:18.044Z,19.22
2017-06-30T02:38:58.565Z,19.29
2017-06-30T02:39:39.084Z,19.26
2017-06-30T02:40:19.631Z,19.36
2017-06-30T02:41:00.151Z,19.29
2017-06-30T02:41:40.687Z,19.26
2017-06-30T02:42:21.216Z,19.23
2017-06-30T02:43:01.733Z,19.29
2017-06-30T02:43:42.340Z,19.26
2017-06-30T02:44:22.878Z,19.21
2017-06-30T02:45:03.397Z,19.26
2017-06-30T02:45:43.918Z,19.31
2017-06-30T02:46:24.436Z,19.18
2017-06-30T02:47:04.957Z,19.25
2017-06-30T02:47:45.489Z,19.28
2017-06-30T02:48:26.012Z,19.26
2017-06-30T02:49:06.529Z,19.14
2017-06-30T02:49:47.048Z,19.13
2017-06-30T02:50:27.587Z,19.13
2017-06-30T02:51:08.105Z,19.14
2017-06-30T02:51:48.614Z,19.13
2017-06-30T02:52:29.126Z,19.14
2017-06-30T02:53:09.679Z,19.11
2017-06-30T02:53:50.201Z,19.22
2017-06-30T02:54:30.731Z,19.18
2017-06-30T02:55:11.261Z,19.26
2017-06-30T02:55:51.783Z,19.22
2017-06-30T02:56:32.319Z,19.28
2017-06-30T02:57:12.841Z,19.31
2017-06-30T02:57:53.358Z,19.32
2017-06-30T02:58:33.876Z,19.25
2017-06-30T02:59:14.491Z,19.21
2017-06-30T02:59:55.002Z,19.23
2017-06-30T03:00:35.547Z,19.22
2017-06-30T03:01:16.116Z,19.21
2017-06-30T03:02:53.984Z,19.28
2017-06-30T03:03:34.630Z,19.29
2017-06-30T03:04:15.063Z,19.25
2017-06-30T03:04:55.579Z,19.25
2017-06-30T03:05:36.088Z,19.26
2017-06-30T03:06:16.604Z,19.28
2017-06-30T03:06:57.133Z,19.23
2017-06-30T03:07:37.664Z,19.22
2017-06-30T03:08:18.182Z,19.13
2017-06-30T03:08:58.710Z,19.13
2017-06-30T03:09:39.222Z,19.25
2017-06-30T03:10:19.739Z,19.26
2017-06-30T03:11:00.260Z,19.33
2017-06-30T03:11:40.787Z,19.21
2017-06-30T03:12:21.316Z,19.31
2017-06-30T03:13:01.833Z,19.37
2017-06-30T03:13:42.355Z,19.39
2017-06-30T03:14:22.911Z,19.37
2017-06-30T03:15:03.441Z,19.4
2017-06-30T03:15:43.963Z,19.37
2017-06-30T03:16:24.485Z,19.43
2017-06-30T03:17:05.005Z,19.44
2017-06-30T03:17:45.529Z,19.44
2017-06-30T03:18:26.037Z,19.39
2017-06-30T03:19:06.563Z,19.46
2017-06-30T03:19:47.096Z,19.48
2017-06-30T03:20:27.627Z,19.46
2017-06-30T03:21:08.141Z,19.43
2017-06-30T03:21:48.654Z,19.5
2017-06-30T03:22:29.186Z,19.46
2017-06-30T03:23:09.694Z,19.56
2017-06-30T03:23:50.218Z,19.54
2017-06-30T03:24:30.725Z,19.51
2017-06-30T03:25:11.251Z,19.51
2017-06-30T03:25:51.773Z,19.56
2017-06-30T03:26:32.318Z,19.41
2017-06-30T03:27:12.838Z,19.48
2017-06-30T03:27:53.443Z,19.47
2017-06-30T03:28:33.965Z,19.44
2017-06-30T03:29:14.492Z,19.31
2017-06-30T03:29:55.079Z,19.25
2017-06-30T03:30:35.600Z,19.23
2017-06-30T03:31:16.123Z,19.25
2017-06-30T03:31:56.643Z,19.32
2017-06-30T03:32:37.166Z,19.21
2017-06-30T03:33:17.693Z,19.26
2017-06-30T03:33:58.226Z,19.33
2017-06-30T03:34:38.751Z,19.32
2017-06-30T03:35:19.266Z,19.32
2017-06-30T03:35:59.787Z,19.33
2017-06-30T03:36:40.324Z,19.37
2017-06-30T03:37:20.840Z,19.31
2017-06-30T03:38:01.367Z,19.33
2017-06-30T03:38:41.894Z,19.37
2017-06-30T03:39:22.437Z,19.4
2017-06-30T03:40:02.957Z,19.32
2017-06-30T03:40:43.478Z,19.32
2017-06-30T03:41:24.000Z,19.39
2017-06-30T03:42:04.528Z,19.32
2017-06-30T03:42:45.050Z,19.23
2017-06-30T03:43:25.575Z,19.22
2017-06-30T03:44:06.106Z,19.31
2017-06-30T03:44:46.630Z,19.37
2017-06-30T03:45:27.145Z,19.43
2017-06-30T03:46:07.678Z,19.41
2017-06-30T03:46:48.224Z,19.43
2017-06-30T03:47:28.750Z,19.41
2017-06-30T03:48:09.275Z,19.46
2017-06-30T03:48:49.807Z,19.39
2017-06-30T03:49:30.354Z,19.48
2017-06-30T03:50:10.875Z,19.41
2017-06-30T03:50:51.405Z,19.37
2017-06-30T03:51:31.927Z,19.21
2017-06-30T03:52:12.533Z,19.23
2017-06-30T03:52:53.061Z,19.31
2017-06-30T03:53:33.580Z,19.31
2017-06-30T03:54:14.152Z,19.22
2017-06-30T03:54:54.685Z,19.25
2017-06-30T03:55:35.203Z,19.26
2017-06-30T03:56:15.721Z,19.25
2017-06-30T03:56:56.250Z,19.33
2017-06-30T03:57:36.775Z,19.43
2017-06-30T03:58:17.295Z,19.31
2017-06-30T03:58:57.825Z,19.37
2017-06-30T03:59:38.398Z,19.39
2017-06-30T04:00:18.918Z,19.46
2017-06-30T04:00:59.439Z,19.37
2017-06-30T04:01:39.978Z,19.33
2017-06-30T04:02:20.503Z,19.37
2017-06-30T04:03:01.016Z,19.37
2017-06-30T04:03:41.650Z,19.31
2017-06-30T04:04:22.174Z,19.36
2017-06-30T04:05:02.713Z,19.4
2017-06-30T04:05:43.239Z,19.44
2017-06-30T04:06:23.778Z,19.4
2017-06-30T04:07:04.302Z,19.46
2017-06-30T04:07:44.821Z,19.43
2017-06-30T04:08:25.336Z,19.46
2017-06-30T04:09:05.866Z,19.46
2017-06-30T04:09:46.384Z,19.47
2017-06-30T04:10:26.902Z,19.51
2017-06-30T04:11:07.415Z,19.48
2017-06-30T04:11:47.943Z,19.44
2017-06-30T04:12:28.463Z,19.51
2017-06-30T04:13:08.991Z,19.65
2017-06-30T04:13:49.512Z,19.61
2017-06-30T04:14:30.044Z,19.48
2017-06-30T04:15:10.559Z,19.51
2017-06-30T04:15:51.063Z,19.65
2017-06-30T04:16:31.594Z,19.61
2017-06-30T04:17:12.177Z,19.65
2017-06-30T04:17:52.693Z,19.56
2017-06-30T04:18:33.241Z,19.69
2017-06-30T04:19:13.745Z,19.66
2017-06-30T04:19:54.270Z,19.73
2017-06-30T04:20:34.897Z,19.78
2017-06-30T04:21:15.415Z,19.73
2017-06-30T04:23:13.605Z,19.73
2017-06-30T04:23:54.100Z,19.83
2017-06-30T04:24:34.621Z,19.78
2017-06-30T04:25:15.331Z,19.76
2017-06-30T04:25:55.871Z,19.69
2017-06-30T04:26:36.377Z,19.76
2017-06-30T04:27:16.887Z,19.73
2017-06-30T04:27:57.678Z,19.78
2017-06-30T04:29:35.329Z,19.95
2017-06-30T04:30:15.936Z,19.87
2017-06-30T04:30:56.412Z,19.88
2017-06-30T04:31:37.292Z,19.87
2017-06-30T04:32:17.822Z,19.84
2017-06-30T04:32:58.364Z,19.83
2017-06-30T04:33:38.878Z,19.95
2017-06-30T04:34:19.435Z,19.96
2017-06-30T04:34:59.923Z,19.94
2017-06-30T04:35:40.448Z,20.05
2017-06-30T04:36:20.972Z,20.2
2017-06-30T04:37:01.493Z,20.17
2017-06-30T04:37:42.013Z,20.24
2017-06-30T04:38:22.533Z,20.32
2017-06-30T04:39:03.057Z,20.47
2017-06-30T04:39:43.593Z,20.38
2017-06-30T04:40:24.116Z,20.43
2017-06-30T04:41:04.620Z,20.48
2017-06-30T04:41:45.139Z,20.54
2017-06-30T04:42:25.656Z,20.59
2017-06-30T04:43:06.173Z,20.59
2017-06-30T04:43:46.700Z,20.64
2017-06-30T04:44:27.247Z,20.59
2017-06-30T04:45:07.767Z,20.5
2017-06-30T04:45:48.294Z,20.48
2017-06-30T04:46:28.823Z,20.57
2017-06-30T04:47:09.411Z,20.42
2017-06-30T04:47:49.926Z,20.43
2017-06-30T04:48:30.446Z,20.47
2017-06-30T04:49:10.973Z,20.47
2017-06-30T04:49:51.506Z,20.43
2017-06-30T04:50:32.033Z,20.43
2017-06-30T04:51:12.603Z,20.54
2017-06-30T04:51:53.129Z,20.41
2017-06-30T04:52:33.650Z,20.38
2017-06-30T04:53:14.174Z,20.38
2017-06-30T04:53:54.696Z,20.35
2017-06-30T04:54:35.242Z,20.35
2017-06-30T04:55:15.791Z,20.36
2017-06-30T04:55:56.308Z,20.31
2017-06-30T04:56:36.822Z,20.28
2017-06-30T04:57:17.350Z,20.42
2017-06-30T04:57:57.861Z,20.43
2017-06-30T04:58:38.411Z,20.33
2017-06-30T04:59:18.927Z,20.32
2017-06-30T04:59:59.445Z,20.35
2017-06-30T05:00:39.970Z,20.35
2017-06-30T05:01:20.479Z,20.35
2017-06-30T05:02:01.011Z,20.26
2017-06-30T05:02:41.618Z,20.28
2017-06-30T05:03:22.128Z,20.2
2017-06-30T05:04:02.642Z,20.18
2017-06-30T05:04:43.159Z,20.21
2017-06-30T05:05:23.657Z,20.16
2017-06-30T05:06:04.371Z,20.28
2017-06-30T05:06:44.896Z,20.21
2017-06-30T05:07:25.432Z,20.13
2017-06-30T05:08:05.965Z,20.14
2017-06-30T05:08:46.483Z,20.21
2017-06-30T05:09:27.006Z,20.18
2017-06-30T05:10:07.524Z,20.26
2017-06-30T05:10:48.053Z,20.24
2017-06-30T05:11:28.590Z,20.29
2017-06-30T05:12:09.132Z,20.35
2017-06-30T05:12:49.652Z,20.36
2017-06-30T05:13:30.190Z,20.41
2017-06-30T05:14:10.700Z,20.48
2017-06-30T05:14:51.222Z,20.52
2017-06-30T05:15:31.740Z,20.42
2017-06-30T05:16:12.258Z,20.48
2017-06-30T05:16:52.775Z,20.43
2017-06-30T05:17:33.297Z,20.52
2017-06-30T05:18:13.820Z,20.52
2017-06-30T05:18:54.341Z,20.36
2017-06-30T05:19:34.872Z,20.54
2017-06-30T05:20:15.399Z,20.39
2017-06-30T05:20:55.928Z,20.51
2017-06-30T05:21:36.463Z,20.47
2017-06-30T05:22:16.983Z,20.38
2017-06-30T05:22:57.528Z,20.57
2017-06-30T05:23:38.045Z,20.61
2017-06-30T05:24:18.571Z,20.7
2017-06-30T05:24:59.098Z,20.62
2017-06-30T05:25:39.618Z,20.52
2017-06-30T05:26:20.136Z,20.61
2017-06-30T05:27:00.670Z,20.73
2017-06-30T05:27:41.190Z,20.8
2017-06-30T05:28:21.713Z,20.8
2017-06-30T05:29:02.241Z,20.84
2017-06-30T05:29:42.757Z,20.91
2017-06-30T05:30:23.280Z,20.98
2017-06-30T05:31:04.174Z,20.98
2017-06-30T05:31:44.687Z,21.09
2017-06-30T05:32:25.218Z,21.03
2017-06-30T05:33:05.896Z,21.16
2017-06-30T05:33:46.398Z,21.28
2017-06-30T05:34:27.010Z,21.13
2017-06-30T05:35:07.580Z,21.28
2017-06-30T05:35:48.098Z,21.17
2017-06-30T05:36:28.749Z,21.21
2017-06-30T05:37:09.284Z,21.21
2017-06-30T05:37:49.809Z,21.13
2017-06-30T05:38:30.327Z,21.21
2017-06-30T05:39:10.837Z,21.4
2017-06-30T05:39:51.421Z,21.47
2017-06-30T05:40:31.927Z,21.62
2017-06-30T05:41:12.448Z,21.69
2017-06-30T05:41:52.974Z,21.69
2017-06-30T05:42:33.508Z,21.69
2017-06-30T05:43:14.094Z,21.64
2017-06-30T05:43:54.572Z,21.49
2017-06-30T05:44:35.098Z,21.31
2017-06-30T05:45:15.994Z,21.24
2017-06-30T05:45:56.524Z,21.28
2017-06-30T05:46:37.100Z,21.34
2017-06-30T05:47:17.630Z,21.28
2017-06-30T05:47:58.143Z,21.32
2017-06-30T05:48:38.661Z,21.28
2017-06-30T05:49:19.196Z,21.35
2017-06-30T05:49:59.860Z,21.47
2017-06-30T05:50:40.267Z,21.59
2017-06-30T05:51:20.787Z,21.49
2017-06-30T05:52:01.322Z,21.56
2017-06-30T05:52:41.844Z,21.82
2017-06-30T05:53:22.378Z,21.94
2017-06-30T05:54:02.905Z,22.31
2017-06-30T05:54:43.434Z,22.45
2017-06-30T05:55:23.976Z,22.37
2017-06-30T05:56:04.499Z,22.33
2017-06-30T05:56:45.035Z,22.45
2017-06-30T05:57:25.580Z,22.4
2017-06-30T05:58:06.113Z,22.37
2017-06-30T05:58:46.633Z,22.28
2017-06-30T05:59:27.154Z,22.21
2017-06-30T06:00:07.672Z,22.17
2017-06-30T06:00:48.255Z,22.18
2017-06-30T06:01:28.812Z,22.18
2017-06-30T06:02:09.349Z,22.61
2017-06-30T06:02:49.874Z,23.61
2017-06-30T06:03:30.391Z,24.58
2017-06-30T06:04:10.922Z,25.18
2017-06-30T06:04:51.440Z,25.57
2017-06-30T06:05:31.995Z,25.09
2017-06-30T06:06:12.501Z,25.23
2017-06-30T06:06:53.101Z,25.17
2017-06-30T06:08:30.974Z,24.57
2017-06-30T06:09:11.500Z,24.25
2017-06-30T06:09:52.025Z,24.28
2017-06-30T06:10:32.554Z,24.21
2017-06-30T06:11:13.077Z,24.15
2017-06-30T06:11:53.643Z,24.46
2017-06-30T06:12:34.161Z,24.3
2017-06-30T06:13:14.687Z,24.27
2017-06-30T06:13:55.216Z,24.22
2017-06-30T06:14:35.741Z,24.09
2017-06-30T06:15:16.271Z,24.06
2017-06-30T06:15:56.802Z,23.69
2017-06-30T06:16:37.325Z,23.54
2017-06-30T06:17:17.837Z,23.69
2017-06-30T06:17:58.378Z,24.12
2017-06-30T06:18:38.904Z,24.31
2017-06-30T06:19:19.425Z,24.28
2017-06-30T06:19:59.953Z,24.34
2017-06-30T06:20:40.471Z,24.49
2017-06-30T06:21:21.122Z,24.69
2017-06-30T06:22:01.648Z,24.87
2017-06-30T06:22:42.248Z,24.99
2017-06-30T06:23:22.738Z,24.96
2017-06-30T06:24:03.280Z,25.23
2017-06-30T06:26:16.112Z,25.39
2017-06-30T06:28:09.253Z,25.7
2017-06-30T06:28:49.738Z,25.76
2017-06-30T06:30:37.778Z,26.01
2017-06-30T06:31:18.303Z,25.76
2017-06-30T06:31:58.822Z,25.91
2017-06-30T06:32:39.353Z,25.98
2017-06-30T06:33:19.878Z,26.13
2017-06-30T06:34:00.418Z,26.1
2017-06-30T06:34:40.946Z,26.15
2017-06-30T06:35:21.456Z,26.26
2017-06-30T06:36:02.016Z,26.43
2017-06-30T06:36:42.615Z,26.4
2017-06-30T06:37:23.120Z,26.35
2017-06-30T06:38:03.770Z,26.1
2017-06-30T06:38:44.184Z,25.94
2017-06-30T06:39:24.702Z,25.94
2017-06-30T06:40:05.259Z,25.92
2017-06-30T06:40:45.765Z,25.8
2017-06-30T06:41:26.315Z,25.77
2017-06-30T06:42:06.800Z,25.64
2017-06-30T06:42:47.303Z,25.64
2017-06-30T06:43:27.813Z,25.32
2017-06-30T06:44:08.365Z,25.21
2017-06-30T06:44:48.881Z,25.15
2017-06-30T06:45:30.068Z,25.25
2017-06-30T06:46:10.541Z,25.2
2017-06-30T06:46:51.036Z,25.17
2017-06-30T06:47:31.537Z,25.14
2017-06-30T06:48:12.063Z,25.08
2017-06-30T06:48:52.623Z,25.08
2017-06-30T06:49:33.089Z,25.27
2017-06-30T06:50:13.654Z,25.1
2017-06-30T06:50:54.158Z,25
2017-06-30T06:51:34.640Z,25
2017-06-30T06:52:15.190Z,24.9
2017-06-30T06:52:55.743Z,24.98
2017-06-30T06:53:36.267Z,24.95
2017-06-30T06:54:16.774Z,24.91
2017-06-30T06:54:57.311Z,24.76
2017-06-30T06:55:37.840Z,24.77
2017-06-30T06:56:18.397Z,24.76
2017-06-30T06:56:58.912Z,24.52
2017-06-30T06:57:39.436Z,24.32
2017-06-30T06:58:19.969Z,24.25
2017-06-30T06:59:00.497Z,24.3
2017-06-30T06:59:41.071Z,24.37
2017-06-30T07:00:21.631Z,24.46
2017-06-30T07:01:02.134Z,24.62
2017-06-30T07:01:42.669Z,24.65
2017-06-30T07:02:23.183Z,24.83
2017-06-30T07:03:03.704Z,24.91
2017-06-30T07:03:44.242Z,24.87
2017-06-30T07:04:24.767Z,24.91
2017-06-30T07:05:05.340Z,25.05
2017-06-30T07:05:45.855Z,24.99
2017-06-30T07:06:26.370Z,24.9
2017-06-30T07:07:06.977Z,25.03
2017-06-30T07:07:47.439Z,25.14
2017-06-30T07:08:28.004Z,24.91
2017-06-30T07:09:08.491Z,24.91
2017-06-30T07:09:48.962Z,25.05
2017-06-30T07:10:29.429Z,25.15
2017-06-30T07:11:09.956Z,25.33
2017-06-30T07:11:50.465Z,25.38
2017-06-30T07:12:30.977Z,25.45
2017-06-30T07:13:11.612Z,25.54
2017-06-30T07:13:52.025Z,25.65
2017-06-30T07:14:32.500Z,25.77
2017-06-30T07:15:12.972Z,25.76
2017-06-30T07:15:53.502Z,25.69
2017-06-30T07:16:34.014Z,25.64
2017-06-30T07:17:14.631Z,25.69
2017-06-30T07:17:55.163Z,25.62
2017-06-30T07:18:35.640Z,25.73
2017-06-30T07:19:16.141Z,25.42
2017-06-30T07:19:56.703Z,25.62
2017-06-30T07:20:37.202Z,25.72
2017-06-30T07:21:17.722Z,25.67
2017-06-30T07:21:58.194Z,25.9
2017-06-30T07:22:38.681Z,25.82
2017-06-30T07:23:19.193Z,25.8
2017-06-30T07:23:59.717Z,25.95
2017-06-30T07:24:40.274Z,26.01
2017-06-30T07:25:20.755Z,26.02
2017-06-30T07:26:01.279Z,26.13
2017-06-30T07:26:41.783Z,25.88
2017-06-30T07:27:22.318Z,25.58
2017-06-30T07:28:02.805Z,25.3
2017-06-30T07:28:43.362Z,25.58
2017-06-30T07:29:23.854Z,25.65
2017-06-30T07:30:04.381Z,25.7
2017-06-30T07:30:44.909Z,25.52
2017-06-30T07:31:25.434Z,25.27
2017-06-30T07:32:05.939Z,25.03
2017-06-30T07:32:46.477Z,24.96
2017-06-30T07:33:27.002Z,24.73
2017-06-30T07:34:07.490Z,24.91
2017-06-30T07:34:48.024Z,24.96
2017-06-30T07:35:28.530Z,25.09
2017-06-30T07:36:09.044Z,24.8
2017-06-30T07:36:49.566Z,24.67
2017-06-30T07:37:30.122Z,24.69
2017-06-30T07:38:10.616Z,24.77
2017-06-30T07:38:51.154Z,24.61
2017-06-30T07:39:31.706Z,24.71
2017-06-30T07:40:12.186Z,24.68
2017-06-30T07:40:52.705Z,24.9
2017-06-30T07:41:33.252Z,25.03
2017-06-30T07:42:13.771Z,24.91
2017-06-30T07:42:54.307Z,24.61
2017-06-30T07:43:34.845Z,24.8
2017-06-30T07:44:15.356Z,24.93
2017-06-30T07:44:55.864Z,24.93
2017-06-30T07:45:36.382Z,24.8
2017-06-30T07:46:16.895Z,24.28
2017-06-30T07:46:57.436Z,24.53
2017-06-30T07:47:37.959Z,24.35
2017-06-30T07:48:18.480Z,24.68
2017-06-30T07:48:59.036Z,24.91
2017-06-30T07:49:39.504Z,24.98
2017-06-30T07:50:20.016Z,25.1
2017-06-30T07:51:00.547Z,25.09
2017-06-30T07:51:41.088Z,25.13
2017-06-30T07:52:21.643Z,25.35
2017-06-30T07:53:02.138Z,25.4
2017-06-30T07:53:42.667Z,25.4
2017-06-30T07:54:23.190Z,25.36
2017-06-30T07:55:03.719Z,25.25
2017-06-30T07:55:44.235Z,25.38
2017-06-30T07:56:24.760Z,25.54
2017-06-30T07:57:05.296Z,25.62
2017-06-30T07:57:45.823Z,25.65
2017-06-30T07:58:26.340Z,25.54
2017-06-30T07:59:06.880Z,25.36
2017-06-30T07:59:47.394Z,25.45
2017-06-30T08:00:27.926Z,25.4
2017-06-30T08:01:08.447Z,25.47
2017-06-30T08:01:48.973Z,25.21
2017-06-30T08:02:29.489Z,25.28
2017-06-30T08:03:10.029Z,25.43
2017-06-30T08:03:50.589Z,25.5
2017-06-30T08:04:31.067Z,25.35
2017-06-30T08:05:11.620Z,25.14
2017-06-30T08:05:52.151Z,25.13
2017-06-30T08:07:40.147Z,25
2017-06-30T08:08:20.668Z,25.08
2017-06-30T08:09:01.216Z,25.25
2017-06-30T08:09:41.739Z,25.18
2017-06-30T08:10:22.266Z,25.38
2017-06-30T08:11:02.799Z,25.25
2017-06-30T08:11:43.328Z,25.14
2017-06-30T08:12:23.870Z,24.99
2017-06-30T08:13:04.407Z,25.23
2017-06-30T08:13:44.938Z,25.25
2017-06-30T08:14:25.466Z,25.24
2017-06-30T08:15:05.998Z,25.36
2017-06-30T08:15:46.540Z,25.45
2017-06-30T08:16:27.044Z,25.39
2017-06-30T08:17:07.588Z,25.42
2017-06-30T08:17:48.110Z,25.21
2017-06-30T08:18:28.644Z,25.3
2017-06-30T08:19:09.169Z,25.17
2017-06-30T08:19:49.700Z,25.2
2017-06-30T08:20:30.694Z,25.27
2017-06-30T08:21:11.063Z,25.3
2017-06-30T08:21:51.647Z,25.38
2017-06-30T08:22:32.166Z,25.38
2017-06-30T08:23:12.799Z,25.38
2017-06-30T08:23:53.323Z,25.3
2017-06-30T08:24:33.862Z,25.14
2017-06-30T08:25:14.379Z,25.33
2017-06-30T08:25:54.925Z,25.21
2017-06-30T08:26:35.447Z,25.17
2017-06-30T08:27:15.975Z,25.1
2017-06-30T08:27:56.505Z,25.09
2017-06-30T08:28:37.050Z,25.2
2017-06-30T08:29:17.616Z,25.25
2017-06-30T08:29:58.148Z,25.14
2017-06-30T08:30:38.664Z,25.21
2017-06-30T08:31:19.203Z,25.18
2017-06-30T08:31:59.734Z,25.17
2017-06-30T08:32:40.267Z,25.2
2017-06-30T08:33:20.840Z,25.2
2017-06-30T08:34:01.398Z,25.28
2017-06-30T08:34:41.931Z,25.4
2017-06-30T08:35:22.452Z,25.3
2017-06-30T08:36:02.952Z,25.36
2017-06-30T08:36:43.472Z,25.35
2017-06-30T08:37:24.026Z,25.18
2017-06-30T08:38:04.549Z,25.36
2017-06-30T08:38:45.081Z,25.33
2017-06-30T08:39:25.608Z,25.38
2017-06-30T08:40:09.898Z,25.33
2017-06-30T08:40:50.338Z,25.3
2017-06-30T08:41:30.928Z,25.27
2017-06-30T08:42:11.427Z,25.4
2017-06-30T08:42:51.923Z,25.28
2017-06-30T08:43:32.459Z,25.28
2017-06-30T08:44:13.177Z,25.21
2017-06-30T08:44:53.748Z,25.28
2017-06-30T08:45:34.284Z,25.23
2017-06-30T08:46:14.787Z,25.15
2017-06-30T08:46:55.288Z,25.06
2017-06-30T08:47:35.807Z,24.99
2017-06-30T08:48:16.329Z,24.99
2017-06-30T08:48:56.834Z,24.88
2017-06-30T08:49:37.373Z,24.95
2017-06-30T08:50:17.869Z,24.88
2017-06-30T08:50:58.407Z,24.91
2017-06-30T08:51:38.932Z,24.9
2017-06-30T08:52:19.558Z,24.9
2017-06-30T08:52:59.980Z,25.02
2017-06-30T08:53:40.492Z,25.1
2017-06-30T08:54:21.106Z,25
2017-06-30T08:55:01.635Z,24.88
2017-06-30T08:55:42.147Z,24.96
2017-06-30T08:56:22.665Z,24.84